San Gabriel, CA (91775)

2:08 AM PDT on September 22, 2014 (GMT -0700)
San Gabriel | Change Station
CLOSE
Current Station
Personal Weather Station
Location: San Gabriel, CA
Elevation: 450 ft
Nearby Weather Stations

Elev 450 ft 34.11 °N, 118.10 °W | Updated 8 minutes ago

Clear
Clear
64.2 °F
Feels Like 64.2 °F
N
0.0
Wind Variable Wind from SW
Gusts 0.0 mph

Today
High -- | Low -- °F
--% Chance of Precip.
Yesterday
High -- | Low -- °F
Precip. -- in
6:40 AM 6:48 PM
Waning Crescent, 3% visible
Pressure 29.96 in
Visibility 10.0 miles
Clouds Clear
Dew Point 58 °F
Humidity 80%
Rainfall 0.00 in
Snow Depth Not available.
UV 16.0 out of 12
Pollen 7.20 out of 12
Ozone Good
PM2.5 Moderate
Flu Activity Not available.
METAR KCQT 220847Z AUTO 00000KT 10SM CLR 19/16 A2996 RMK AO2 SLP143 T01890161 53006

More Conditions Fewer Conditions

Pressure 29.96 in
Visibility 10.0 miles
Clouds Clear
Dew Point 58 °F
Humidity 80%
Rainfall 0.00 in
Snow Depth Not available.
UV 16.0 out of 12
Pollen 7.20 out of 12
Ozone Good
PM2.5 Moderate
Flu Activity Not available.
METAR KCQT 220847Z AUTO 00000KT 10SM CLR 19/16 A2996 RMK AO2 SLP143 T01890161 53006

More Conditions Fewer Conditions

10-Day Weather Forecast

Almanac

Astronomy

Sep. 22, 2014 Rise Set
Actual Time 6:40 AM PDT 6:48 PM PDT
Civil Twilight 6:15 AM PDT 7:13 PM PDT
Nautical Twilight 5:46 AM PDT 7:43 PM PDT
Astronomical Twilight 5:16 AM PDT 8:12 PM PDT
Moon 5:16 AM PDT 5:57 PM PDT
Length of Visible Light 12h 58m
Length of Day
12h 08m
Tomorrow will be 2m 6s shorter.
Waning Crescent, 3% of the Moon is Illuminated
Today
Waning Crescent
Sep 24
New
Oct 1
First Quarter
Oct 8
Full
Oct 15
Last Quarter

Today's Extremes

State Highs State Lows

Community

WunderPhotos

Upload Photos

1,755,402 photos uploaded!

Nearby

Air Quality

  Air Quality AQ Index Pollutant
Yesterday Moderate
PM2.5
Yesterday Good
OZONE
Current Moderate
PM2.5
Current Good
OZONE
Monday Good
PM10
Monday Good
OZONE
Monday Good
CO
Monday Good
NO2

Snow Depth

Station Depth Elevation
Tahoe City Cross 0 in 6750 ft
Summit Meadow 1 in 9122 ft
Squaw Valley 0 in 8200 ft
Spratt Creek 1 in 6200 ft
Leavitt Meadows 1 in 7200 ft

Earthquake Activity

City Distance Mag. Time & Date
Borrego Springs, California 115 miles 2.6 7:34 AM PDT
2014-09-21
Inyokern, California 134 miles 3.1 5:33 PM PDT
2014-09-19
Aguanga, California 86 miles 2.5 1:38 AM PDT
2014-09-19
Corcoran, California 161 miles 2.9 3:59 PM PDT
2014-09-18
Minimum magnitude displayed is 2.5.

Coastal Water Temperatures

Place Temperature
Santa Monica Pier 69.1 °F
Los Angeles, CA 66.9 °F
La Jolla, CA 73.0 °F

Nearby Weather Stations